sensor_id;sensor_type;location;lat;lon;timestamp;P1;durP1;ratioP1;P2;durP2;ratioP2
6376;SDS011;3221;48.858;10.128;2023-07-31T00:01:47;3.97;;;2.00;;
6376;SDS011;3221;48.858;10.128;2023-07-31T00:04:22;3.03;;;1.90;;
6376;SDS011;3221;48.858;10.128;2023-07-31T00:06:49;3.47;;;1.90;;
6376;SDS011;3221;48.858;10.128;2023-07-31T00:09:21;3.67;;;2.07;;
6376;SDS011;3221;48.858;10.128;2023-07-31T00:11:52;4.57;;;2.00;;
6376;SDS011;3221;48.858;10.128;2023-07-31T00:14:33;4.50;;;2.27;;
6376;SDS011;3221;48.858;10.128;2023-07-31T00:17:03;5.37;;;2.13;;
6376;SDS011;3221;48.858;10.128;2023-07-31T00:19:33;5.43;;;2.13;;
6376;SDS011;3221;48.858;10.128;2023-07-31T00:22:00;3.77;;;2.30;;
6376;SDS011;3221;48.858;10.128;2023-07-31T00:24:27;3.20;;;2.03;;
6376;SDS011;3221;48.858;10.128;2023-07-31T00:27:00;3.97;;;2.30;;
6376;SDS011;3221;48.858;10.128;2023-07-31T00:29:27;4.90;;;2.27;;
6376;SDS011;3221;48.858;10.128;2023-07-31T00:31:53;5.27;;;2.70;;
6376;SDS011;3221;48.858;10.128;2023-07-31T00:34:20;4.43;;;2.60;;
6376;SDS011;3221;48.858;10.128;2023-07-31T00:36:47;4.37;;;2.70;;
6376;SDS011;3221;48.858;10.128;2023-07-31T00:39:15;6.87;;;2.40;;
6376;SDS011;3221;48.858;10.128;2023-07-31T00:41:43;7.13;;;2.47;;
6376;SDS011;3221;48.858;10.128;2023-07-31T00:44:13;3.70;;;2.20;;
6376;SDS011;3221;48.858;10.128;2023-07-31T00:46:40;5.13;;;2.10;;
6376;SDS011;3221;48.858;10.128;2023-07-31T00:49:10;6.80;;;2.30;;
6376;SDS011;3221;48.858;10.128;2023-07-31T00:51:38;5.60;;;2.20;;
6376;SDS011;3221;48.858;10.128;2023-07-31T00:54:05;5.53;;;2.23;;
6376;SDS011;3221;48.858;10.128;2023-07-31T00:56:35;4.17;;;1.90;;
6376;SDS011;3221;48.858;10.128;2023-07-31T00:59:15;3.50;;;1.87;;
6376;SDS011;3221;48.858;10.128;2023-07-31T01:01:44;3.87;;;2.53;;
6376;SDS011;3221;48.858;10.128;2023-07-31T01:04:12;5.77;;;2.10;;
6376;SDS011;3221;48.858;10.128;2023-07-31T01:11:53;2.40;;;1.70;;
6376;SDS011;3221;48.858;10.128;2023-07-31T01:14:26;3.37;;;2.13;;
6376;SDS011;3221;48.858;10.128;2023-07-31T01:16:54;4.13;;;2.00;;
6376;SDS011;3221;48.858;10.128;2023-07-31T01:19:22;3.33;;;2.13;;
6376;SDS011;3221;48.858;10.128;2023-07-31T01:27:14;4.87;;;2.53;;
6376;SDS011;3221;48.858;10.128;2023-07-31T01:29:51;5.00;;;2.43;;
6376;SDS011;3221;48.858;10.128;2023-07-31T01:32:24;5.17;;;2.20;;
6376;SDS011;3221;48.858;10.128;2023-07-31T01:34:53;5.23;;;2.20;;
6376;SDS011;3221;48.858;10.128;2023-07-31T01:37:21;5.03;;;2.20;;
6376;SDS011;3221;48.858;10.128;2023-07-31T01:39:48;4.60;;;1.93;;
6376;SDS011;3221;48.858;10.128;2023-07-31T01:42:15;3.67;;;2.10;;
6376;SDS011;3221;48.858;10.128;2023-07-31T01:44:42;3.13;;;2.20;;
6376;SDS011;3221;48.858;10.128;2023-07-31T01:47:09;4.00;;;2.07;;
6376;SDS011;3221;48.858;10.128;2023-07-31T01:49:36;4.70;;;2.23;;
6376;SDS011;3221;48.858;10.128;2023-07-31T01:52:02;6.93;;;2.30;;
6376;SDS011;3221;48.858;10.128;2023-07-31T01:54:30;4.60;;;1.73;;
6376;SDS011;3221;48.858;10.128;2023-07-31T01:56:56;4.80;;;1.87;;
6376;SDS011;3221;48.858;10.128;2023-07-31T01:59:23;5.03;;;2.33;;
6376;SDS011;3221;48.858;10.128;2023-07-31T02:01:50;5.87;;;2.23;;
6376;SDS011;3221;48.858;10.128;2023-07-31T02:04:20;3.13;;;1.80;;
6376;SDS011;3221;48.858;10.128;2023-07-31T02:06:47;4.40;;;2.20;;
6376;SDS011;3221;48.858;10.128;2023-07-31T02:09:13;3.97;;;2.13;;
6376;SDS011;3221;48.858;10.128;2023-07-31T02:11:40;2.97;;;1.80;;
6376;SDS011;3221;48.858;10.128;2023-07-31T02:14:07;3.00;;;1.80;;
6376;SDS011;3221;48.858;10.128;2023-07-31T02:16:34;3.90;;;1.87;;
6376;SDS011;3221;48.858;10.128;2023-07-31T02:19:01;4.47;;;2.30;;
6376;SDS011;3221;48.858;10.128;2023-07-31T02:21:28;2.43;;;2.10;;
6376;SDS011;3221;48.858;10.128;2023-07-31T02:23:55;11.00;;;2.73;;
6376;SDS011;3221;48.858;10.128;2023-07-31T02:26:21;3.20;;;1.90;;
6376;SDS011;3221;48.858;10.128;2023-07-31T02:28:48;3.77;;;2.20;;
6376;SDS011;3221;48.858;10.128;2023-07-31T02:31:15;4.03;;;1.93;;
6376;SDS011;3221;48.858;10.128;2023-07-31T02:33:44;4.63;;;2.10;;
6376;SDS011;3221;48.858;10.128;2023-07-31T02:36:11;4.80;;;2.23;;
6376;SDS011;3221;48.858;10.128;2023-07-31T02:38:40;3.47;;;2.00;;
6376;SDS011;3221;48.858;10.128;2023-07-31T02:41:06;3.40;;;2.27;;
6376;SDS011;3221;48.858;10.128;2023-07-31T02:43:33;2.27;;;1.90;;
6376;SDS011;3221;48.858;10.128;2023-07-31T02:46:00;4.20;;;2.00;;
6376;SDS011;3221;48.858;10.128;2023-07-31T02:48:27;4.23;;;2.33;;
6376;SDS011;3221;48.858;10.128;2023-07-31T02:50:54;4.00;;;2.10;;
6376;SDS011;3221;48.858;10.128;2023-07-31T02:53:21;3.07;;;1.80;;
6376;SDS011;3221;48.858;10.128;2023-07-31T02:55:51;9.00;;;2.20;;
6376;SDS011;3221;48.858;10.128;2023-07-31T02:58:18;3.47;;;2.30;;
6376;SDS011;3221;48.858;10.128;2023-07-31T03:00:45;5.47;;;2.20;;
6376;SDS011;3221;48.858;10.128;2023-07-31T03:03:12;3.23;;;2.23;;
6376;SDS011;3221;48.858;10.128;2023-07-31T03:05:39;6.73;;;2.47;;
6376;SDS011;3221;48.858;10.128;2023-07-31T03:08:05;2.93;;;2.13;;
6376;SDS011;3221;48.858;10.128;2023-07-31T03:10:33;2.93;;;2.10;;
6376;SDS011;3221;48.858;10.128;2023-07-31T03:13:00;4.30;;;2.20;;
6376;SDS011;3221;48.858;10.128;2023-07-31T03:15:26;3.70;;;2.13;;
6376;SDS011;3221;48.858;10.128;2023-07-31T03:17:53;3.23;;;2.00;;
6376;SDS011;3221;48.858;10.128;2023-07-31T03:20:20;3.67;;;2.13;;
6376;SDS011;3221;48.858;10.128;2023-07-31T03:22:47;3.27;;;2.10;;
6376;SDS011;3221;48.858;10.128;2023-07-31T03:25:14;3.60;;;2.10;;
6376;SDS011;3221;48.858;10.128;2023-07-31T03:27:41;4.63;;;2.10;;
6376;SDS011;3221;48.858;10.128;2023-07-31T03:30:08;2.77;;;2.07;;
6376;SDS011;3221;48.858;10.128;2023-07-31T03:32:35;5.23;;;2.20;;
6376;SDS011;3221;48.858;10.128;2023-07-31T03:35:03;4.30;;;2.10;;
6376;SDS011;3221;48.858;10.128;2023-07-31T03:37:31;4.57;;;2.70;;
6376;SDS011;3221;48.858;10.128;2023-07-31T03:39:58;2.37;;;2.17;;
6376;SDS011;3221;48.858;10.128;2023-07-31T03:42:25;3.13;;;1.90;;
6376;SDS011;3221;48.858;10.128;2023-07-31T03:44:52;3.10;;;2.20;;
6376;SDS011;3221;48.858;10.128;2023-07-31T03:47:20;3.10;;;2.67;;
6376;SDS011;3221;48.858;10.128;2023-07-31T03:49:46;3.93;;;2.47;;
6376;SDS011;3221;48.858;10.128;2023-07-31T03:52:14;6.70;;;3.00;;
6376;SDS011;3221;48.858;10.128;2023-07-31T03:54:40;4.57;;;2.60;;
6376;SDS011;3221;48.858;10.128;2023-07-31T03:57:07;4.63;;;2.47;;
6376;SDS011;3221;48.858;10.128;2023-07-31T03:59:34;5.03;;;2.30;;
6376;SDS011;3221;48.858;10.128;2023-07-31T04:02:01;4.43;;;2.50;;
6376;SDS011;3221;48.858;10.128;2023-07-31T04:04:28;2.43;;;2.20;;
6376;SDS011;3221;48.858;10.128;2023-07-31T04:06:55;3.13;;;2.33;;
6376;SDS011;3221;48.858;10.128;2023-07-31T04:09:21;3.80;;;2.20;;
6376;SDS011;3221;48.858;10.128;2023-07-31T04:11:48;4.63;;;2.23;;
6376;SDS011;3221;48.858;10.128;2023-07-31T04:14:15;4.43;;;2.20;;
6376;SDS011;3221;48.858;10.128;2023-07-31T04:16:43;3.33;;;2.00;;
6376;SDS011;3221;48.858;10.128;2023-07-31T04:19:09;4.13;;;2.17;;
6376;SDS011;3221;48.858;10.128;2023-07-31T04:21:37;2.30;;;2.10;;
6376;SDS011;3221;48.858;10.128;2023-07-31T04:24:03;2.93;;;2.00;;
6376;SDS011;3221;48.858;10.128;2023-07-31T04:26:30;5.53;;;2.30;;
6376;SDS011;3221;48.858;10.128;2023-07-31T04:28:57;2.50;;;2.10;;
6376;SDS011;3221;48.858;10.128;2023-07-31T04:31:24;5.47;;;2.23;;
6376;SDS011;3221;48.858;10.128;2023-07-31T04:33:52;4.33;;;2.30;;
6376;SDS011;3221;48.858;10.128;2023-07-31T04:36:19;4.37;;;2.10;;
6376;SDS011;3221;48.858;10.128;2023-07-31T04:38:46;2.93;;;2.17;;
6376;SDS011;3221;48.858;10.128;2023-07-31T04:41:13;2.97;;;2.10;;
6376;SDS011;3221;48.858;10.128;2023-07-31T04:43:40;2.73;;;2.10;;
6376;SDS011;3221;48.858;10.128;2023-07-31T04:46:07;3.33;;;2.33;;
6376;SDS011;3221;48.858;10.128;2023-07-31T04:48:34;4.70;;;2.40;;
6376;SDS011;3221;48.858;10.128;2023-07-31T04:51:17;4.63;;;2.50;;
6376;SDS011;3221;48.858;10.128;2023-07-31T04:53:46;3.67;;;2.80;;
6376;SDS011;3221;48.858;10.128;2023-07-31T04:56:15;3.37;;;2.17;;
6376;SDS011;3221;48.858;10.128;2023-07-31T04:58:42;4.50;;;2.97;;
6376;SDS011;3221;48.858;10.128;2023-07-31T05:01:09;4.47;;;2.73;;
6376;SDS011;3221;48.858;10.128;2023-07-31T05:03:36;5.43;;;3.43;;
6376;SDS011;3221;48.858;10.128;2023-07-31T05:06:03;6.40;;;3.00;;
6376;SDS011;3221;48.858;10.128;2023-07-31T05:08:30;5.03;;;2.80;;
6376;SDS011;3221;48.858;10.128;2023-07-31T05:10:56;4.30;;;2.60;;
6376;SDS011;3221;48.858;10.128;2023-07-31T05:13:23;4.87;;;3.03;;
6376;SDS011;3221;48.858;10.128;2023-07-31T05:15:50;5.37;;;3.07;;
6376;SDS011;3221;48.858;10.128;2023-07-31T05:18:17;4.97;;;2.93;;
6376;SDS011;3221;48.858;10.128;2023-07-31T05:20:44;6.00;;;3.30;;
6376;SDS011;3221;48.858;10.128;2023-07-31T05:23:10;4.97;;;2.70;;
6376;SDS011;3221;48.858;10.128;2023-07-31T05:25:37;4.13;;;2.70;;
6376;SDS011;3221;48.858;10.128;2023-07-31T05:28:04;4.03;;;2.53;;
6376;SDS011;3221;48.858;10.128;2023-07-31T05:30:31;3.97;;;2.90;;
6376;SDS011;3221;48.858;10.128;2023-07-31T05:32:58;3.00;;;2.47;;
6376;SDS011;3221;48.858;10.128;2023-07-31T05:35:25;3.83;;;2.70;;
6376;SDS011;3221;48.858;10.128;2023-07-31T05:37:52;5.10;;;2.80;;
6376;SDS011;3221;48.858;10.128;2023-07-31T05:40:18;3.67;;;2.27;;
6376;SDS011;3221;48.858;10.128;2023-07-31T05:42:45;4.33;;;2.53;;
6376;SDS011;3221;48.858;10.128;2023-07-31T05:45:12;5.13;;;2.97;;
6376;SDS011;3221;48.858;10.128;2023-07-31T05:47:39;3.73;;;3.00;;
6376;SDS011;3221;48.858;10.128;2023-07-31T05:50:07;4.27;;;2.87;;
6376;SDS011;3221;48.858;10.128;2023-07-31T05:52:34;4.93;;;2.80;;
6376;SDS011;3221;48.858;10.128;2023-07-31T05:55:01;3.90;;;2.40;;
6376;SDS011;3221;48.858;10.128;2023-07-31T05:57:29;4.63;;;2.80;;
6376;SDS011;3221;48.858;10.128;2023-07-31T05:59:56;4.50;;;2.80;;
6376;SDS011;3221;48.858;10.128;2023-07-31T06:02:22;4.27;;;2.60;;
6376;SDS011;3221;48.858;10.128;2023-07-31T06:04:50;3.87;;;2.37;;
6376;SDS011;3221;48.858;10.128;2023-07-31T06:07:17;4.03;;;2.70;;
6376;SDS011;3221;48.858;10.128;2023-07-31T06:09:44;3.03;;;2.43;;
6376;SDS011;3221;48.858;10.128;2023-07-31T06:12:10;2.40;;;2.17;;
6376;SDS011;3221;48.858;10.128;2023-07-31T06:14:38;5.63;;;3.53;;
6376;SDS011;3221;48.858;10.128;2023-07-31T06:17:04;7.37;;;4.30;;
6376;SDS011;3221;48.858;10.128;2023-07-31T06:19:31;6.30;;;4.30;;
6376;SDS011;3221;48.858;10.128;2023-07-31T06:21:58;5.70;;;4.00;;
6376;SDS011;3221;48.858;10.128;2023-07-31T06:24:25;5.90;;;3.70;;
6376;SDS011;3221;48.858;10.128;2023-07-31T06:26:52;6.60;;;4.17;;
6376;SDS011;3221;48.858;10.128;2023-07-31T06:29:19;7.03;;;3.57;;
6376;SDS011;3221;48.858;10.128;2023-07-31T06:31:47;4.87;;;3.60;;
6376;SDS011;3221;48.858;10.128;2023-07-31T06:34:14;6.40;;;3.13;;
6376;SDS011;3221;48.858;10.128;2023-07-31T06:36:41;4.73;;;3.20;;
6376;SDS011;3221;48.858;10.128;2023-07-31T06:39:15;4.73;;;2.73;;
6376;SDS011;3221;48.858;10.128;2023-07-31T06:41:42;2.93;;;2.33;;
6376;SDS011;3221;48.858;10.128;2023-07-31T06:44:10;2.90;;;2.60;;
6376;SDS011;3221;48.858;10.128;2023-07-31T06:46:40;3.70;;;2.50;;
6376;SDS011;3221;48.858;10.128;2023-07-31T06:49:08;2.73;;;2.50;;
6376;SDS011;3221;48.858;10.128;2023-07-31T06:51:42;3.07;;;2.13;;
6376;SDS011;3221;48.858;10.128;2023-07-31T06:54:10;6.27;;;2.60;;
6376;SDS011;3221;48.858;10.128;2023-07-31T06:56:39;3.73;;;2.40;;
6376;SDS011;3221;48.858;10.128;2023-07-31T06:59:07;3.07;;;2.47;;
6376;SDS011;3221;48.858;10.128;2023-07-31T07:01:34;4.10;;;2.50;;
6376;SDS011;3221;48.858;10.128;2023-07-31T07:04:01;3.97;;;2.27;;
6376;SDS011;3221;48.858;10.128;2023-07-31T07:06:29;2.93;;;2.60;;
6376;SDS011;3221;48.858;10.128;2023-07-31T07:08:56;3.00;;;2.50;;
6376;SDS011;3221;48.858;10.128;2023-07-31T07:11:22;3.80;;;2.57;;
6376;SDS011;3221;48.858;10.128;2023-07-31T07:13:50;4.43;;;2.80;;
6376;SDS011;3221;48.858;10.128;2023-07-31T07:16:17;5.60;;;2.90;;
6376;SDS011;3221;48.858;10.128;2023-07-31T07:18:44;3.73;;;2.83;;
6376;SDS011;3221;48.858;10.128;2023-07-31T07:21:29;4.77;;;2.60;;
6376;SDS011;3221;48.858;10.128;2023-07-31T07:23:56;6.50;;;2.80;;
6376;SDS011;3221;48.858;10.128;2023-07-31T07:26:23;4.00;;;2.43;;
6376;SDS011;3221;48.858;10.128;2023-07-31T07:28:49;5.47;;;2.80;;
6376;SDS011;3221;48.858;10.128;2023-07-31T07:31:16;3.07;;;2.33;;
6376;SDS011;3221;48.858;10.128;2023-07-31T07:33:44;4.43;;;2.37;;
6376;SDS011;3221;48.858;10.128;2023-07-31T07:36:11;4.20;;;2.60;;
6376;SDS011;3221;48.858;10.128;2023-07-31T07:38:39;3.20;;;2.50;;
6376;SDS011;3221;48.858;10.128;2023-07-31T07:41:07;3.13;;;2.63;;
6376;SDS011;3221;48.858;10.128;2023-07-31T07:43:34;4.23;;;2.80;;
6376;SDS011;3221;48.858;10.128;2023-07-31T07:46:01;5.70;;;3.20;;
6376;SDS011;3221;48.858;10.128;2023-07-31T07:48:28;3.93;;;3.40;;
6376;SDS011;3221;48.858;10.128;2023-07-31T07:50:55;5.43;;;3.50;;
6376;SDS011;3221;48.858;10.128;2023-07-31T07:53:22;3.80;;;2.80;;
6376;SDS011;3221;48.858;10.128;2023-07-31T07:55:49;5.57;;;3.20;;
6376;SDS011;3221;48.858;10.128;2023-07-31T07:58:15;4.83;;;3.03;;
6376;SDS011;3221;48.858;10.128;2023-07-31T08:00:47;4.57;;;3.13;;
6376;SDS011;3221;48.858;10.128;2023-07-31T08:03:16;6.43;;;3.30;;
6376;SDS011;3221;48.858;10.128;2023-07-31T08:05:43;3.93;;;2.60;;
6376;SDS011;3221;48.858;10.128;2023-07-31T08:08:14;3.70;;;2.50;;
6376;SDS011;3221;48.858;10.128;2023-07-31T08:10:42;4.73;;;2.63;;
6376;SDS011;3221;48.858;10.128;2023-07-31T08:13:12;4.33;;;2.60;;
6376;SDS011;3221;48.858;10.128;2023-07-31T08:15:42;4.87;;;3.07;;
6376;SDS011;3221;48.858;10.128;2023-07-31T08:18:09;5.27;;;2.80;;
6376;SDS011;3221;48.858;10.128;2023-07-31T08:20:38;5.23;;;3.10;;
6376;SDS011;3221;48.858;10.128;2023-07-31T08:23:05;4.00;;;3.03;;
6376;SDS011;3221;48.858;10.128;2023-07-31T08:25:34;5.03;;;3.20;;
6376;SDS011;3221;48.858;10.128;2023-07-31T08:28:02;5.00;;;2.80;;
6376;SDS011;3221;48.858;10.128;2023-07-31T08:30:29;5.73;;;2.90;;
6376;SDS011;3221;48.858;10.128;2023-07-31T08:32:57;5.67;;;3.27;;
6376;SDS011;3221;48.858;10.128;2023-07-31T08:35:26;4.80;;;3.20;;
6376;SDS011;3221;48.858;10.128;2023-07-31T08:37:59;5.80;;;3.23;;
6376;SDS011;3221;48.858;10.128;2023-07-31T08:40:32;4.43;;;3.07;;
6376;SDS011;3221;48.858;10.128;2023-07-31T08:43:20;5.13;;;3.10;;
6376;SDS011;3221;48.858;10.128;2023-07-31T08:45:51;6.27;;;3.23;;
6376;SDS011;3221;48.858;10.128;2023-07-31T08:48:33;3.60;;;2.90;;
6376;SDS011;3221;48.858;10.128;2023-07-31T08:51:03;6.13;;;2.90;;
6376;SDS011;3221;48.858;10.128;2023-07-31T08:53:30;7.40;;;3.30;;
6376;SDS011;3221;48.858;10.128;2023-07-31T08:55:57;6.50;;;3.60;;
6376;SDS011;3221;48.858;10.128;2023-07-31T08:58:25;5.30;;;3.20;;
6376;SDS011;3221;48.858;10.128;2023-07-31T09:00:56;6.50;;;3.47;;
6376;SDS011;3221;48.858;10.128;2023-07-31T09:03:24;4.90;;;3.10;;
6376;SDS011;3221;48.858;10.128;2023-07-31T09:05:52;5.00;;;3.07;;
6376;SDS011;3221;48.858;10.128;2023-07-31T09:08:21;4.17;;;3.00;;
6376;SDS011;3221;48.858;10.128;2023-07-31T09:10:48;4.40;;;3.10;;
6376;SDS011;3221;48.858;10.128;2023-07-31T09:13:18;7.60;;;2.90;;
6376;SDS011;3221;48.858;10.128;2023-07-31T09:15:45;4.83;;;3.10;;
6376;SDS011;3221;48.858;10.128;2023-07-31T09:18:13;3.93;;;2.90;;
6376;SDS011;3221;48.858;10.128;2023-07-31T09:20:45;7.20;;;3.53;;
6376;SDS011;3221;48.858;10.128;2023-07-31T09:23:13;6.03;;;3.13;;
6376;SDS011;3221;48.858;10.128;2023-07-31T09:25:43;7.40;;;3.50;;
6376;SDS011;3221;48.858;10.128;2023-07-31T09:28:11;8.80;;;3.20;;
6376;SDS011;3221;48.858;10.128;2023-07-31T09:30:51;5.53;;;2.87;;
6376;SDS011;3221;48.858;10.128;2023-07-31T09:33:18;6.47;;;3.20;;
6376;SDS011;3221;48.858;10.128;2023-07-31T09:35:49;5.23;;;2.90;;
6376;SDS011;3221;48.858;10.128;2023-07-31T09:38:16;5.90;;;3.40;;
6376;SDS011;3221;48.858;10.128;2023-07-31T09:40:44;4.93;;;3.43;;
6376;SDS011;3221;48.858;10.128;2023-07-31T09:43:19;5.80;;;3.37;;
6376;SDS011;3221;48.858;10.128;2023-07-31T09:45:54;5.53;;;3.50;;
6376;SDS011;3221;48.858;10.128;2023-07-31T09:48:23;5.77;;;3.33;;
6376;SDS011;3221;48.858;10.128;2023-07-31T09:50:53;6.00;;;3.73;;
6376;SDS011;3221;48.858;10.128;2023-07-31T09:53:27;5.27;;;3.20;;
6376;SDS011;3221;48.858;10.128;2023-07-31T09:55:58;6.67;;;3.27;;
6376;SDS011;3221;48.858;10.128;2023-07-31T09:58:26;4.27;;;3.00;;
6376;SDS011;3221;48.858;10.128;2023-07-31T10:00:55;5.70;;;3.03;;
6376;SDS011;3221;48.858;10.128;2023-07-31T10:03:25;6.00;;;3.27;;
6376;SDS011;3221;48.858;10.128;2023-07-31T10:05:53;5.07;;;3.10;;
6376;SDS011;3221;48.858;10.128;2023-07-31T10:08:23;5.43;;;3.30;;
6376;SDS011;3221;48.858;10.128;2023-07-31T10:10:58;4.13;;;2.80;;
6376;SDS011;3221;48.858;10.128;2023-07-31T10:13:25;5.13;;;3.10;;
6376;SDS011;3221;48.858;10.128;2023-07-31T10:15:54;7.67;;;4.00;;
6376;SDS011;3221;48.858;10.128;2023-07-31T10:18:25;5.07;;;3.10;;
6376;SDS011;3221;48.858;10.128;2023-07-31T10:20:54;9.00;;;4.00;;
6376;SDS011;3221;48.858;10.128;2023-07-31T10:23:22;5.50;;;3.40;;
6376;SDS011;3221;48.858;10.128;2023-07-31T10:25:53;4.67;;;3.07;;
6376;SDS011;3221;48.858;10.128;2023-07-31T10:28:20;5.33;;;3.07;;
6376;SDS011;3221;48.858;10.128;2023-07-31T10:30:47;6.87;;;3.60;;
6376;SDS011;3221;48.858;10.128;2023-07-31T10:33:16;5.87;;;3.33;;
6376;SDS011;3221;48.858;10.128;2023-07-31T10:35:44;6.00;;;2.80;;
6376;SDS011;3221;48.858;10.128;2023-07-31T10:38:13;6.47;;;3.30;;
6376;SDS011;3221;48.858;10.128;2023-07-31T10:40:41;5.70;;;2.87;;
6376;SDS011;3221;48.858;10.128;2023-07-31T10:43:08;6.17;;;3.07;;
6376;SDS011;3221;48.858;10.128;2023-07-31T10:46:23;6.13;;;2.90;;
6376;SDS011;3221;48.858;10.128;2023-07-31T10:48:27;4.27;;;2.87;;
6376;SDS011;3221;48.858;10.128;2023-07-31T10:51:00;4.73;;;3.13;;
6376;SDS011;3221;48.858;10.128;2023-07-31T10:53:29;5.03;;;3.07;;
6376;SDS011;3221;48.858;10.128;2023-07-31T10:56:01;6.70;;;2.97;;
6376;SDS011;3221;48.858;10.128;2023-07-31T10:58:29;5.87;;;2.60;;
6376;SDS011;3221;48.858;10.128;2023-07-31T11:00:59;4.17;;;2.90;;
6376;SDS011;3221;48.858;10.128;2023-07-31T11:03:40;4.47;;;3.00;;
6376;SDS011;3221;48.858;10.128;2023-07-31T11:06:09;4.80;;;3.20;;
6376;SDS011;3221;48.858;10.128;2023-07-31T11:08:44;7.10;;;3.27;;
6376;SDS011;3221;48.858;10.128;2023-07-31T11:11:12;4.93;;;2.90;;
6376;SDS011;3221;48.858;10.128;2023-07-31T11:13:45;7.03;;;3.33;;
6376;SDS011;3221;48.858;10.128;2023-07-31T11:16:16;5.60;;;3.00;;
6376;SDS011;3221;48.858;10.128;2023-07-31T11:18:48;6.33;;;2.73;;
6376;SDS011;3221;48.858;10.128;2023-07-31T11:21:18;5.30;;;3.07;;
6376;SDS011;3221;48.858;10.128;2023-07-31T11:23:50;5.13;;;2.97;;
6376;SDS011;3221;48.858;10.128;2023-07-31T11:26:19;3.97;;;3.03;;
6376;SDS011;3221;48.858;10.128;2023-07-31T11:28:46;6.43;;;3.13;;
6376;SDS011;3221;48.858;10.128;2023-07-31T11:31:14;5.60;;;2.90;;
6376;SDS011;3221;48.858;10.128;2023-07-31T11:33:41;5.57;;;3.27;;
6376;SDS011;3221;48.858;10.128;2023-07-31T11:36:22;5.80;;;3.23;;
6376;SDS011;3221;48.858;10.128;2023-07-31T11:38:49;3.87;;;2.90;;
6376;SDS011;3221;48.858;10.128;2023-07-31T11:41:16;9.83;;;3.30;;
6376;SDS011;3221;48.858;10.128;2023-07-31T11:43:44;5.87;;;3.13;;
6376;SDS011;3221;48.858;10.128;2023-07-31T11:46:12;5.00;;;2.77;;
6376;SDS011;3221;48.858;10.128;2023-07-31T11:48:42;7.50;;;3.30;;
6376;SDS011;3221;48.858;10.128;2023-07-31T11:51:13;8.20;;;3.20;;
6376;SDS011;3221;48.858;10.128;2023-07-31T11:53:45;5.10;;;2.93;;
6376;SDS011;3221;48.858;10.128;2023-07-31T11:56:18;4.50;;;3.07;;
6376;SDS011;3221;48.858;10.128;2023-07-31T12:02:59;5.47;;;3.00;;
6376;SDS011;3221;48.858;10.128;2023-07-31T12:05:26;6.43;;;3.97;;
6376;SDS011;3221;48.858;10.128;2023-07-31T12:08:44;5.07;;;3.70;;
6376;SDS011;3221;48.858;10.128;2023-07-31T12:11:14;6.43;;;3.80;;
6376;SDS011;3221;48.858;10.128;2023-07-31T12:13:42;5.83;;;3.73;;
6376;SDS011;3221;48.858;10.128;2023-07-31T12:16:09;5.90;;;3.37;;
6376;SDS011;3221;48.858;10.128;2023-07-31T12:18:39;6.63;;;3.57;;
6376;SDS011;3221;48.858;10.128;2023-07-31T12:21:07;6.30;;;4.43;;
6376;SDS011;3221;48.858;10.128;2023-07-31T12:23:36;8.13;;;4.70;;
6376;SDS011;3221;48.858;10.128;2023-07-31T12:26:11;6.90;;;4.30;;
6376;SDS011;3221;48.858;10.128;2023-07-31T12:28:49;6.07;;;4.63;;
6376;SDS011;3221;48.858;10.128;2023-07-31T12:37:11;4.90;;;3.80;;
6376;SDS011;3221;48.858;10.128;2023-07-31T12:42:34;7.30;;;4.07;;
6376;SDS011;3221;48.858;10.128;2023-07-31T12:45:01;5.87;;;4.20;;
6376;SDS011;3221;48.858;10.128;2023-07-31T12:47:36;5.17;;;4.17;;
6376;SDS011;3221;48.858;10.128;2023-07-31T12:50:04;8.57;;;4.00;;
6376;SDS011;3221;48.858;10.128;2023-07-31T12:52:35;5.90;;;3.80;;
6376;SDS011;3221;48.858;10.128;2023-07-31T12:55:11;5.37;;;3.10;;
6376;SDS011;3221;48.858;10.128;2023-07-31T12:57:39;6.17;;;3.43;;
6376;SDS011;3221;48.858;10.128;2023-07-31T13:00:06;3.17;;;2.87;;
6376;SDS011;3221;48.858;10.128;2023-07-31T13:02:33;4.70;;;3.03;;
6376;SDS011;3221;48.858;10.128;2023-07-31T13:08:21;3.97;;;3.23;;
6376;SDS011;3221;48.858;10.128;2023-07-31T13:10:52;7.13;;;3.80;;
6376;SDS011;3221;48.858;10.128;2023-07-31T13:13:19;4.43;;;3.67;;
6376;SDS011;3221;48.858;10.128;2023-07-31T13:16:00;5.33;;;3.23;;
6376;SDS011;3221;48.858;10.128;2023-07-31T13:18:30;5.23;;;3.70;;
6376;SDS011;3221;48.858;10.128;2023-07-31T13:20:57;4.87;;;3.37;;
6376;SDS011;3221;48.858;10.128;2023-07-31T13:23:24;4.60;;;3.30;;
6376;SDS011;3221;48.858;10.128;2023-07-31T13:25:51;5.37;;;3.70;;
6376;SDS011;3221;48.858;10.128;2023-07-31T13:28:17;5.90;;;3.23;;
6376;SDS011;3221;48.858;10.128;2023-07-31T13:30:44;5.70;;;3.63;;
6376;SDS011;3221;48.858;10.128;2023-07-31T13:33:12;8.90;;;5.63;;
6376;SDS011;3221;48.858;10.128;2023-07-31T13:35:59;9.00;;;4.93;;
6376;SDS011;3221;48.858;10.128;2023-07-31T13:41:18;4.93;;;4.07;;
6376;SDS011;3221;48.858;10.128;2023-07-31T13:43:45;4.43;;;3.70;;
6376;SDS011;3221;48.858;10.128;2023-07-31T13:46:26;4.20;;;3.00;;
6376;SDS011;3221;48.858;10.128;2023-07-31T13:49:04;5.07;;;3.60;;
6376;SDS011;3221;48.858;10.128;2023-07-31T13:51:31;6.80;;;3.37;;
6376;SDS011;3221;48.858;10.128;2023-07-31T13:53:58;4.40;;;3.03;;
6376;SDS011;3221;48.858;10.128;2023-07-31T13:56:31;5.07;;;3.10;;
6376;SDS011;3221;48.858;10.128;2023-07-31T13:58:58;5.47;;;3.10;;
6376;SDS011;3221;48.858;10.128;2023-07-31T14:01:29;5.97;;;3.53;;
6376;SDS011;3221;48.858;10.128;2023-07-31T14:03:57;7.40;;;3.30;;
6376;SDS011;3221;48.858;10.128;2023-07-31T14:06:25;4.53;;;3.30;;
6376;SDS011;3221;48.858;10.128;2023-07-31T14:09:05;4.37;;;3.23;;
6376;SDS011;3221;48.858;10.128;2023-07-31T14:12:15;5.00;;;3.23;;
6376;SDS011;3221;48.858;10.128;2023-07-31T14:15:14;5.20;;;3.40;;
6376;SDS011;3221;48.858;10.128;2023-07-31T14:17:41;4.80;;;3.40;;
6376;SDS011;3221;48.858;10.128;2023-07-31T14:20:08;5.80;;;3.60;;
6376;SDS011;3221;48.858;10.128;2023-07-31T14:26:13;6.37;;;4.37;;
6376;SDS011;3221;48.858;10.128;2023-07-31T14:28:40;5.07;;;3.97;;
6376;SDS011;3221;48.858;10.128;2023-07-31T14:31:07;4.90;;;3.60;;
6376;SDS011;3221;48.858;10.128;2023-07-31T14:33:34;7.57;;;3.73;;
6376;SDS011;3221;48.858;10.128;2023-07-31T14:36:01;4.67;;;3.30;;
6376;SDS011;3221;48.858;10.128;2023-07-31T14:38:28;7.67;;;3.80;;
6376;SDS011;3221;48.858;10.128;2023-07-31T14:40:55;7.27;;;3.87;;
6376;SDS011;3221;48.858;10.128;2023-07-31T14:43:22;6.80;;;3.80;;
6376;SDS011;3221;48.858;10.128;2023-07-31T14:45:49;6.77;;;4.00;;
6376;SDS011;3221;48.858;10.128;2023-07-31T14:48:16;5.20;;;4.00;;
6376;SDS011;3221;48.858;10.128;2023-07-31T14:50:43;4.03;;;3.60;;
6376;SDS011;3221;48.858;10.128;2023-07-31T14:53:10;7.97;;;4.10;;
6376;SDS011;3221;48.858;10.128;2023-07-31T14:55:36;5.57;;;4.00;;
6376;SDS011;3221;48.858;10.128;2023-07-31T14:58:03;6.70;;;4.03;;
6376;SDS011;3221;48.858;10.128;2023-07-31T15:00:30;5.93;;;3.90;;
6376;SDS011;3221;48.858;10.128;2023-07-31T15:02:57;5.17;;;3.80;;
6376;SDS011;3221;48.858;10.128;2023-07-31T15:05:24;5.83;;;3.60;;
6376;SDS011;3221;48.858;10.128;2023-07-31T15:07:51;4.13;;;3.40;;
6376;SDS011;3221;48.858;10.128;2023-07-31T15:10:18;5.90;;;3.70;;
6376;SDS011;3221;48.858;10.128;2023-07-31T15:12:45;3.50;;;3.07;;
6376;SDS011;3221;48.858;10.128;2023-07-31T15:15:13;6.23;;;3.67;;
6376;SDS011;3221;48.858;10.128;2023-07-31T15:17:41;9.07;;;4.10;;
6376;SDS011;3221;48.858;10.128;2023-07-31T15:20:09;4.03;;;3.10;;
6376;SDS011;3221;48.858;10.128;2023-07-31T15:22:36;5.13;;;3.33;;
6376;SDS011;3221;48.858;10.128;2023-07-31T15:25:03;5.57;;;3.80;;
6376;SDS011;3221;48.858;10.128;2023-07-31T15:27:30;5.67;;;3.33;;
6376;SDS011;3221;48.858;10.128;2023-07-31T15:29:57;4.00;;;3.60;;
6376;SDS011;3221;48.858;10.128;2023-07-31T15:32:24;4.97;;;3.23;;
6376;SDS011;3221;48.858;10.128;2023-07-31T15:34:51;6.33;;;3.43;;
6376;SDS011;3221;48.858;10.128;2023-07-31T15:37:18;8.23;;;5.07;;
6376;SDS011;3221;48.858;10.128;2023-07-31T15:39:44;5.43;;;4.50;;
6376;SDS011;3221;48.858;10.128;2023-07-31T15:42:11;5.83;;;4.37;;
6376;SDS011;3221;48.858;10.128;2023-07-31T15:44:38;7.53;;;3.70;;